createdAt,value
2024-01-20T00:00:14.458Z,42.81
2024-01-20T00:02:41.252Z,42.75
2024-01-20T00:05:08.497Z,42.75
2024-01-20T00:07:35.508Z,42.73
2024-01-20T00:10:02.458Z,42.86
2024-01-20T00:12:31.547Z,42.97
2024-01-20T00:14:58.145Z,42.88
2024-01-20T00:17:27.436Z,42.81
2024-01-20T00:19:56.052Z,42.91
2024-01-20T00:22:23.813Z,43.08
2024-01-20T00:24:50.816Z,43.13
2024-01-20T00:27:17.839Z,42.98
2024-01-20T00:29:45.401Z,42.94
2024-01-20T00:32:12.714Z,43.08
2024-01-20T00:34:51.299Z,42.97
2024-01-20T00:37:25.768Z,43.04
2024-01-20T00:39:52.260Z,43.05
2024-01-20T00:42:18.792Z,42.91
2024-01-20T00:44:45.354Z,43.17
2024-01-20T00:47:12.111Z,43.25
2024-01-20T00:49:38.812Z,43.17
2024-01-20T00:52:05.788Z,43.22
2024-01-20T00:54:32.355Z,43.20
2024-01-20T00:56:58.822Z,43.11
2024-01-20T00:59:25.283Z,43.20
2024-01-20T01:01:51.996Z,43.18
2024-01-20T01:04:18.537Z,43.13
2024-01-20T01:06:45.132Z,43.14
2024-01-20T01:09:11.676Z,43.28
2024-01-20T01:11:38.246Z,43.46
2024-01-20T01:14:04.776Z,43.20
2024-01-20T01:16:31.396Z,43.27
2024-01-20T01:18:57.998Z,43.31
2024-01-20T01:21:24.622Z,43.36
2024-01-20T01:23:51.148Z,43.25
2024-01-20T01:26:18.528Z,43.39
2024-01-20T01:28:45.193Z,43.24
2024-01-20T01:31:11.754Z,43.24
2024-01-20T01:33:39.157Z,43.39
2024-01-20T01:36:06.263Z,43.18
2024-01-20T01:38:32.818Z,43.25
2024-01-20T01:40:59.537Z,43.33
2024-01-20T01:43:26.638Z,43.35
2024-01-20T01:45:53.393Z,43.32
2024-01-20T01:48:20.424Z,43.33
2024-01-20T01:50:47.161Z,43.40
2024-01-20T01:53:14.956Z,43.43
2024-01-20T01:55:41.982Z,43.41
2024-01-20T01:58:08.585Z,43.54
2024-01-20T02:00:35.394Z,43.45
2024-01-20T02:03:02.891Z,43.52
2024-01-20T02:05:29.628Z,43.58
2024-01-20T02:07:58.834Z,43.32
2024-01-20T02:10:25.469Z,43.53
2024-01-20T02:12:52.355Z,43.41
2024-01-20T02:15:19.164Z,43.31
2024-01-20T02:17:56.246Z,43.46
2024-01-20T02:20:24.273Z,43.35
2024-01-20T02:22:50.868Z,43.48
2024-01-20T02:25:17.421Z,43.54
2024-01-20T02:27:43.886Z,43.50
2024-01-20T02:30:10.778Z,43.63
2024-01-20T02:32:37.416Z,43.51
2024-01-20T02:35:04.797Z,43.62
2024-01-20T02:37:31.416Z,43.46
2024-01-20T02:39:58.704Z,43.56
2024-01-20T02:42:25.833Z,43.58
2024-01-20T02:44:52.492Z,43.65
2024-01-20T02:47:19.607Z,43.54
2024-01-20T02:49:46.325Z,43.63
2024-01-20T02:52:13.028Z,43.63
2024-01-20T02:54:39.558Z,43.55
2024-01-20T02:57:06.470Z,43.73
2024-01-20T02:59:32.974Z,43.53
2024-01-20T03:02:00.537Z,43.53
2024-01-20T03:04:27.093Z,43.61
2024-01-20T03:06:53.608Z,43.65
2024-01-20T03:09:20.312Z,43.57
2024-01-20T03:11:46.877Z,43.58
2024-01-20T03:14:13.476Z,43.66
2024-01-20T03:16:40.489Z,43.63
2024-01-20T03:19:07.682Z,43.73
2024-01-20T03:21:35.325Z,43.75
2024-01-20T03:24:02.195Z,43.81
2024-01-20T03:26:28.965Z,43.66
2024-01-20T03:28:55.618Z,43.81
2024-01-20T03:31:22.213Z,43.75
2024-01-20T03:33:48.822Z,43.66
2024-01-20T03:36:15.461Z,43.84
2024-01-20T03:38:42.003Z,43.77
2024-01-20T03:41:08.581Z,43.69
2024-01-20T03:43:35.083Z,43.88
2024-01-20T03:46:01.733Z,43.74
2024-01-20T03:48:28.569Z,43.71
2024-01-20T03:50:55.282Z,43.85
2024-01-20T03:53:21.756Z,43.63
2024-01-20T03:55:48.248Z,43.91
2024-01-20T03:58:14.851Z,43.72
2024-01-20T04:00:41.393Z,43.90
2024-01-20T04:03:07.993Z,43.78
2024-01-20T04:05:34.498Z,43.74
2024-01-20T04:08:00.943Z,43.78
2024-01-20T04:10:27.460Z,43.75
2024-01-20T04:12:54.049Z,43.76
2024-01-20T04:15:20.607Z,43.85
2024-01-20T04:17:47.258Z,43.64
2024-01-20T04:20:13.924Z,43.86
2024-01-20T04:22:40.513Z,43.64
2024-01-20T04:25:07.707Z,43.75
2024-01-20T04:27:41.222Z,43.71
2024-01-20T04:30:09.646Z,43.79
2024-01-20T04:32:36.309Z,43.67
2024-01-20T04:35:04.364Z,43.63
2024-01-20T04:37:31.008Z,43.60
2024-01-20T04:39:57.550Z,43.58
2024-01-20T04:42:24.059Z,43.52
2024-01-20T04:44:50.596Z,43.63
2024-01-20T04:47:17.104Z,43.53
2024-01-20T04:49:43.719Z,43.40
2024-01-20T04:52:10.267Z,43.47
2024-01-20T04:54:36.818Z,43.49
2024-01-20T04:57:03.491Z,43.37
2024-01-20T04:59:30.013Z,43.40
2024-01-20T05:01:56.515Z,43.28
2024-01-20T05:04:23.056Z,43.26
2024-01-20T05:06:49.969Z,43.25
2024-01-20T05:09:16.654Z,43.21
2024-01-20T05:11:43.232Z,43.35
2024-01-20T05:14:10.238Z,43.39
2024-01-20T05:16:36.760Z,43.25
2024-01-20T05:19:03.681Z,43.34
2024-01-20T05:21:30.464Z,43.50
2024-01-20T05:23:58.420Z,43.46
2024-01-20T05:26:25.165Z,43.41
2024-01-20T05:28:51.876Z,43.34
2024-01-20T05:31:18.638Z,43.56
2024-01-20T05:33:45.460Z,43.61
2024-01-20T05:36:15.555Z,43.59
2024-01-20T05:38:42.189Z,43.65
2024-01-20T05:41:10.128Z,43.55
2024-01-20T05:43:37.540Z,43.51
2024-01-20T05:46:08.134Z,43.52
2024-01-20T05:48:36.432Z,43.20
2024-01-20T05:51:03.570Z,43.21
2024-01-20T05:53:30.538Z,43.13
2024-01-20T05:55:57.055Z,43.05
2024-01-20T05:58:23.549Z,43.20
2024-01-20T06:00:50.666Z,43.09
2024-01-20T06:03:17.267Z,43.18
2024-01-20T06:05:43.889Z,43.24
2024-01-20T06:08:10.494Z,43.17
2024-01-20T06:10:37.049Z,43.23
2024-01-20T06:13:03.741Z,43.20
2024-01-20T06:15:30.268Z,43.02
2024-01-20T06:17:56.848Z,43.17
2024-01-20T06:20:23.440Z,43.17
2024-01-20T06:22:50.021Z,43.18
2024-01-20T06:25:16.520Z,43.21
2024-01-20T06:27:43.360Z,43.16
2024-01-20T06:30:10.424Z,43.02
2024-01-20T06:32:37.059Z,43.11
2024-01-20T06:35:04.063Z,43.07
2024-01-20T06:37:30.585Z,43.09
2024-01-20T06:39:57.105Z,43.17
2024-01-20T06:42:23.765Z,43.16
2024-01-20T06:44:50.330Z,43.25
2024-01-20T06:47:16.873Z,43.16
2024-01-20T06:49:43.517Z,43.06
2024-01-20T06:52:10.909Z,43.17
2024-01-20T06:54:39.361Z,43.30
2024-01-20T06:57:05.893Z,43.29
2024-01-20T06:59:32.469Z,43.19
2024-01-20T07:01:58.955Z,43.33
2024-01-20T07:04:25.710Z,43.28
2024-01-20T07:06:52.301Z,43.30
2024-01-20T07:09:18.937Z,43.22
2024-01-20T07:11:45.439Z,43.41
2024-01-20T07:14:11.952Z,43.35
2024-01-20T07:16:38.501Z,43.42
2024-01-20T07:19:05.195Z,43.35
2024-01-20T07:21:31.869Z,43.32
2024-01-20T07:23:58.463Z,43.23
2024-01-20T07:26:25.004Z,43.32
2024-01-20T07:28:51.542Z,43.14
2024-01-20T07:31:18.086Z,43.20
2024-01-20T07:33:45.078Z,43.15
2024-01-20T07:36:12.223Z,43.26
2024-01-20T07:38:38.790Z,43.25
2024-01-20T07:41:05.449Z,43.17
2024-01-20T07:43:31.964Z,43.25
2024-01-20T07:45:58.477Z,43.19
2024-01-20T07:48:27.067Z,43.28
2024-01-20T07:50:54.402Z,42.96
2024-01-20T07:53:21.035Z,43.04
2024-01-20T07:55:47.566Z,43.25
2024-01-20T07:58:14.065Z,43.86
2024-01-20T08:00:40.799Z,43.87
2024-01-20T08:03:07.361Z,44.32
2024-01-20T08:05:35.668Z,44.02
2024-01-20T08:08:02.620Z,44.23
2024-01-20T08:10:29.135Z,44.06
2024-01-20T08:12:56.635Z,44.41
2024-01-20T08:15:24.574Z,44.31
2024-01-20T08:17:51.257Z,44.58
2024-01-20T08:20:17.824Z,44.18
2024-01-20T08:22:44.339Z,44.03
2024-01-20T08:25:10.973Z,44.16
2024-01-20T08:27:37.626Z,44.64
2024-01-20T08:30:04.692Z,44.81
2024-01-20T08:32:31.405Z,45.12
2024-01-20T08:34:58.091Z,44.57
2024-01-20T08:37:24.568Z,44.54
2024-01-20T08:39:51.062Z,44.78
2024-01-20T08:42:17.587Z,44.95
2024-01-20T08:44:44.384Z,45.17
2024-01-20T08:47:10.885Z,45.15
2024-01-20T08:49:37.393Z,44.87
2024-01-20T08:52:04.153Z,45.05
2024-01-20T08:54:30.678Z,45.16
2024-01-20T08:56:57.212Z,44.98
2024-01-20T08:59:23.810Z,45.03
2024-01-20T09:01:50.338Z,45.06
2024-01-20T09:04:16.823Z,45.33
2024-01-20T09:06:43.456Z,45.61
2024-01-20T09:09:10.098Z,45.69
2024-01-20T09:11:36.675Z,45.53
2024-01-20T09:14:03.725Z,45.26
2024-01-20T09:16:30.437Z,45.44
2024-01-20T09:18:57.157Z,45.35
2024-01-20T09:21:24.029Z,45.07
2024-01-20T09:23:51.934Z,44.99
2024-01-20T09:26:18.500Z,44.84
2024-01-20T09:28:45.113Z,44.55
2024-01-20T09:31:11.628Z,44.35
2024-01-20T09:33:38.372Z,44.20
2024-01-20T09:36:05.387Z,43.75
2024-01-20T09:38:31.947Z,43.85
2024-01-20T09:40:59.437Z,43.69
2024-01-20T09:43:30.851Z,43.71
2024-01-20T09:45:58.954Z,43.70
2024-01-20T09:48:25.938Z,43.75
2024-01-20T09:50:52.508Z,43.58
2024-01-20T09:53:19.221Z,43.46
2024-01-20T09:55:47.055Z,43.30
2024-01-20T09:58:15.255Z,43.08
2024-01-20T10:00:42.338Z,42.84
2024-01-20T10:03:10.738Z,42.79
2024-01-20T10:05:38.477Z,42.34
2024-01-20T10:08:08.714Z,42.39
2024-01-20T10:10:35.389Z,42.55
2024-01-20T10:13:02.268Z,42.56
2024-01-20T10:15:34.041Z,42.49
2024-01-20T10:18:07.822Z,42.38
2024-01-20T10:20:37.125Z,42.48
2024-01-20T10:23:06.401Z,42.46
2024-01-20T10:25:33.169Z,42.38
2024-01-20T10:28:00.169Z,42.51
2024-01-20T10:30:27.303Z,42.43
2024-01-20T10:33:04.352Z,42.58
2024-01-20T10:35:36.102Z,42.43
2024-01-20T10:38:07.603Z,42.69
2024-01-20T10:40:39.932Z,42.58
2024-01-20T10:43:15.270Z,42.71
2024-01-20T10:46:10.014Z,42.93
2024-01-20T10:48:38.560Z,42.91
2024-01-20T10:51:14.177Z,42.83
2024-01-20T10:53:41.204Z,42.96
2024-01-20T10:56:08.734Z,42.77
2024-01-20T10:58:44.471Z,42.86
2024-01-20T11:01:12.814Z,42.67
2024-01-20T11:03:40.164Z,43.05
2024-01-20T11:06:06.878Z,42.80
2024-01-20T11:08:33.510Z,42.85
2024-01-20T11:11:00.937Z,42.80
2024-01-20T11:13:28.029Z,42.87
2024-01-20T11:15:56.077Z,42.73
2024-01-20T11:18:24.370Z,42.90
2024-01-20T11:20:57.604Z,42.86
2024-01-20T11:23:25.474Z,42.77
2024-01-20T11:25:52.168Z,42.81
2024-01-20T11:28:26.393Z,42.62
2024-01-20T11:30:53.189Z,42.61
2024-01-20T11:33:20.273Z,42.91
2024-01-20T11:35:46.877Z,42.85
2024-01-20T11:38:15.628Z,42.83
2024-01-20T11:40:42.201Z,42.63
2024-01-20T11:43:11.967Z,42.68
2024-01-20T11:45:41.951Z,42.40
2024-01-20T11:48:12.794Z,42.53
2024-01-20T11:50:41.788Z,42.20
2024-01-20T11:53:08.405Z,42.29
2024-01-20T11:55:34.934Z,42.07
2024-01-20T11:58:02.146Z,42.41
2024-01-20T12:00:28.850Z,41.99
2024-01-20T12:02:56.032Z,41.97
2024-01-20T12:05:22.801Z,41.64
2024-01-20T12:07:49.483Z,41.68
2024-01-20T12:10:17.319Z,41.76
2024-01-20T12:12:44.849Z,41.69
2024-01-20T12:15:11.715Z,41.74
2024-01-20T12:17:38.380Z,41.59
2024-01-20T12:20:06.179Z,41.71
2024-01-20T12:22:33.380Z,41.48
2024-01-20T12:25:00.443Z,41.73
2024-01-20T12:27:27.525Z,41.60
2024-01-20T12:29:54.256Z,41.59
2024-01-20T12:32:20.810Z,41.52
2024-01-20T12:34:47.449Z,41.59
2024-01-20T12:37:13.980Z,41.54
2024-01-20T12:39:40.558Z,41.62
2024-01-20T12:42:07.264Z,41.74
2024-01-20T12:44:33.796Z,41.59
2024-01-20T12:47:00.310Z,41.42
2024-01-20T12:49:27.113Z,41.65
2024-01-20T12:51:53.882Z,41.50
2024-01-20T12:54:20.533Z,41.39
2024-01-20T12:56:47.507Z,41.52
2024-01-20T12:59:14.105Z,41.62
2024-01-20T13:01:40.808Z,41.55
2024-01-20T13:04:07.400Z,41.50
2024-01-20T13:06:34.147Z,41.53
2024-01-20T13:09:00.869Z,41.52
2024-01-20T13:11:29.380Z,41.38
2024-01-20T13:13:57.348Z,41.53
2024-01-20T13:16:23.982Z,41.40
2024-01-20T13:18:53.258Z,41.40
2024-01-20T13:21:20.340Z,41.45
2024-01-20T13:23:47.690Z,41.50
2024-01-20T13:26:14.181Z,41.47
2024-01-20T13:28:40.684Z,41.44
2024-01-20T13:31:07.407Z,41.58
2024-01-20T13:33:34.056Z,41.69
2024-01-20T13:36:00.810Z,41.52
2024-01-20T13:38:27.433Z,41.58
2024-01-20T13:40:53.968Z,41.51
2024-01-20T13:43:20.474Z,41.58
2024-01-20T13:45:47.747Z,41.52
2024-01-20T13:48:14.503Z,41.54
2024-01-20T13:50:41.181Z,41.70
2024-01-20T13:53:08.253Z,41.48
2024-01-20T13:55:34.765Z,41.55
2024-01-20T13:58:01.312Z,41.63
2024-01-20T14:00:27.865Z,41.58
2024-01-20T14:02:54.489Z,41.44
2024-01-20T14:05:21.058Z,41.55
2024-01-20T14:07:47.592Z,41.46
2024-01-20T14:10:14.347Z,41.32
2024-01-20T14:12:40.927Z,41.41
2024-01-20T14:15:07.884Z,41.56
2024-01-20T14:17:34.599Z,41.44
2024-01-20T14:20:01.335Z,41.47
2024-01-20T14:22:28.014Z,41.40
2024-01-20T14:24:54.525Z,41.39
2024-01-20T14:27:21.105Z,41.44
2024-01-20T14:29:47.653Z,41.44
2024-01-20T14:32:14.179Z,41.49
2024-01-20T14:34:40.722Z,41.54
2024-01-20T14:37:08.691Z,41.52
2024-01-20T14:39:35.597Z,41.42
2024-01-20T14:42:02.887Z,41.40
2024-01-20T14:44:29.560Z,41.50
2024-01-20T14:46:56.072Z,41.42
2024-01-20T14:49:23.189Z,41.44
2024-01-20T14:51:49.820Z,41.50
2024-01-20T14:54:16.384Z,41.43
2024-01-20T14:56:42.874Z,41.43
2024-01-20T14:59:09.859Z,41.50
2024-01-20T15:01:37.647Z,41.51
2024-01-20T15:04:05.861Z,41.49
2024-01-20T15:06:32.981Z,41.39
2024-01-20T15:09:00.202Z,41.51
2024-01-20T15:11:27.159Z,41.47
2024-01-20T15:13:53.708Z,41.45
2024-01-20T15:16:20.288Z,41.34
2024-01-20T15:18:46.976Z,41.40
2024-01-20T15:21:13.612Z,41.18
2024-01-20T15:23:40.147Z,41.01
2024-01-20T15:26:06.614Z,41.04
2024-01-20T15:28:33.144Z,41.07
2024-01-20T15:30:59.696Z,41.17
2024-01-20T15:33:26.430Z,41.33
2024-01-20T15:35:53.046Z,41.46
2024-01-20T15:38:19.739Z,41.38
2024-01-20T15:40:46.399Z,41.30
2024-01-20T15:43:12.960Z,41.61
2024-01-20T15:45:39.553Z,41.65
2024-01-20T15:48:06.417Z,41.98
2024-01-20T15:50:33.575Z,42.20
2024-01-20T15:53:00.049Z,42.20
2024-01-20T15:55:26.547Z,42.38
2024-01-20T15:57:53.121Z,42.54
2024-01-20T16:00:19.842Z,42.64
2024-01-20T16:02:46.634Z,42.91
2024-01-20T16:05:13.343Z,42.70
2024-01-20T16:07:39.850Z,42.99
2024-01-20T16:10:07.044Z,43.08
2024-01-20T16:12:33.676Z,43.21
2024-01-20T16:15:00.718Z,43.24
2024-01-20T16:17:27.613Z,43.47
2024-01-20T16:19:54.202Z,43.58
2024-01-20T16:22:20.709Z,43.62
2024-01-20T16:24:47.774Z,43.76
2024-01-20T16:27:14.406Z,43.82
2024-01-20T16:29:40.953Z,43.91
2024-01-20T16:32:10.554Z,44.06
2024-01-20T16:34:37.226Z,43.99
2024-01-20T16:37:05.197Z,44.06
2024-01-20T16:39:32.009Z,44.29
2024-01-20T16:41:58.650Z,44.30
2024-01-20T16:44:26.903Z,44.47
2024-01-20T16:46:54.127Z,44.52
2024-01-20T16:49:21.495Z,44.48
2024-01-20T16:51:49.105Z,44.57
2024-01-20T16:54:15.937Z,44.65
2024-01-20T16:56:42.637Z,44.77
2024-01-20T16:59:09.976Z,44.76
2024-01-20T17:01:37.938Z,44.97
2024-01-20T17:04:04.857Z,44.91
2024-01-20T17:06:31.831Z,44.92
2024-01-20T17:08:58.448Z,44.93
2024-01-20T17:11:24.996Z,45.01
2024-01-20T17:13:54.831Z,45.07
2024-01-20T17:16:21.378Z,45.11
2024-01-20T17:21:18.509Z,45.24
2024-01-20T17:23:45.297Z,45.19
2024-01-20T17:26:12.071Z,45.16
2024-01-20T17:28:38.686Z,45.13
2024-01-20T17:31:05.846Z,45.08
2024-01-20T17:33:32.704Z,45.14
2024-01-20T17:35:59.376Z,44.76
2024-01-20T17:38:26.149Z,44.57
2024-01-20T17:40:52.732Z,44.37
2024-01-20T17:43:19.240Z,44.12
2024-01-20T17:45:49.838Z,44.03
2024-01-20T17:48:16.588Z,44.05
2024-01-20T17:50:43.257Z,44.20
2024-01-20T17:53:09.817Z,44.45
2024-01-20T17:55:36.398Z,44.24
2024-01-20T17:58:03.008Z,44.38
2024-01-20T18:00:29.898Z,44.43
2024-01-20T18:02:56.590Z,44.22
2024-01-20T18:05:23.601Z,44.36
2024-01-20T18:07:51.185Z,44.23
2024-01-20T18:10:21.011Z,44.19
2024-01-20T18:12:48.132Z,44.16
2024-01-20T18:15:15.112Z,44.08
2024-01-20T18:17:42.832Z,44.19
2024-01-20T18:20:09.498Z,44.11
2024-01-20T18:22:36.150Z,43.94
2024-01-20T18:25:02.809Z,44.00
2024-01-20T18:27:29.488Z,43.83
2024-01-20T18:29:57.059Z,43.67
2024-01-20T18:32:25.082Z,43.81
2024-01-20T18:34:51.873Z,43.72
2024-01-20T18:37:18.450Z,43.76
2024-01-20T18:39:45.166Z,43.61
2024-01-20T18:42:11.831Z,43.25
2024-01-20T18:44:38.502Z,43.13
2024-01-20T18:47:07.118Z,43.14
2024-01-20T18:49:34.022Z,43.02
2024-01-20T18:52:01.669Z,42.87
2024-01-20T18:54:28.440Z,42.86
2024-01-20T18:56:55.037Z,42.66
2024-01-20T18:59:21.537Z,42.56
2024-01-20T19:01:48.144Z,42.57
2024-01-20T19:04:14.685Z,42.38
2024-01-20T19:06:41.440Z,42.07
2024-01-20T19:09:08.115Z,41.98
2024-01-20T19:11:35.283Z,42.12
2024-01-20T19:14:01.874Z,42.21
2024-01-20T19:16:29.531Z,42.26
2024-01-20T19:18:56.341Z,42.07
2024-01-20T19:21:23.077Z,41.89
2024-01-20T19:23:49.762Z,42.00
2024-01-20T19:26:16.363Z,42.06
2024-01-20T19:28:42.996Z,42.17
2024-01-20T19:31:10.070Z,41.82
2024-01-20T19:33:37.373Z,41.67
2024-01-20T19:36:04.107Z,41.93
2024-01-20T19:38:30.646Z,41.93
2024-01-20T19:40:58.207Z,41.89
2024-01-20T19:43:24.694Z,41.62
2024-01-20T19:45:51.707Z,41.56
2024-01-20T19:48:18.574Z,41.52
2024-01-20T19:50:46.918Z,41.67
2024-01-20T19:53:13.446Z,41.43
2024-01-20T19:55:41.305Z,41.34
2024-01-20T19:58:08.257Z,41.34
2024-01-20T20:00:34.867Z,41.53
2024-01-20T20:03:01.576Z,41.48
2024-01-20T20:05:28.294Z,41.36
2024-01-20T20:07:54.861Z,41.28
2024-01-20T20:10:21.647Z,41.14
2024-01-20T20:12:48.614Z,41.01
2024-01-20T20:15:15.229Z,40.96
2024-01-20T20:17:41.804Z,40.66
2024-01-20T20:20:08.929Z,40.43
2024-01-20T20:22:35.445Z,40.32
2024-01-20T20:25:01.985Z,40.25
2024-01-20T20:27:28.603Z,40.34
2024-01-20T20:29:55.153Z,40.43
2024-01-20T20:32:22.595Z,40.10
2024-01-20T20:34:51.076Z,39.92
2024-01-20T20:37:19.893Z,40.01
2024-01-20T20:39:46.749Z,39.94
2024-01-20T20:42:13.466Z,39.84
2024-01-20T20:44:40.013Z,39.90
2024-01-20T20:47:06.627Z,39.91
2024-01-20T20:49:33.178Z,39.75
2024-01-20T20:51:59.813Z,39.55
2024-01-20T20:54:26.482Z,39.73
2024-01-20T20:56:53.122Z,39.60
2024-01-20T20:59:19.791Z,39.94
2024-01-20T21:01:46.314Z,39.72
2024-01-20T21:04:12.909Z,39.64
2024-01-20T21:06:40.361Z,39.64
2024-01-20T21:09:09.095Z,39.91
2024-01-20T21:11:35.729Z,39.83
2024-01-20T21:14:02.341Z,39.73
2024-01-20T21:16:29.478Z,40.01
2024-01-20T21:18:57.704Z,40.03
2024-01-20T21:21:24.845Z,39.80
2024-01-20T21:23:51.587Z,39.90
2024-01-20T21:26:24.312Z,39.97
2024-01-20T21:28:51.087Z,40.01
2024-01-20T21:31:17.681Z,40.06
2024-01-20T21:33:45.036Z,39.90
2024-01-20T21:36:12.366Z,40.13
2024-01-20T21:38:39.780Z,39.98
2024-01-20T21:41:06.991Z,39.94
2024-01-20T21:43:34.249Z,39.97
2024-01-20T21:46:00.777Z,40.05
2024-01-20T21:48:27.433Z,39.90
2024-01-20T21:50:55.774Z,40.08
2024-01-20T21:53:23.814Z,39.99
2024-01-20T21:55:50.314Z,39.90
2024-01-20T21:58:17.209Z,40.19
2024-01-20T22:00:43.935Z,39.90
2024-01-20T22:03:10.883Z,40.02
2024-01-20T22:05:38.791Z,40.05
2024-01-20T22:08:05.601Z,40.09
2024-01-20T22:10:33.369Z,39.96
2024-01-20T22:12:59.986Z,40.04
2024-01-20T22:15:26.633Z,40.14
2024-01-20T22:17:53.474Z,40.14
2024-01-20T22:20:20.127Z,40.24
2024-01-20T22:22:46.714Z,40.02
2024-01-20T22:25:14.335Z,40.34
2024-01-20T22:27:40.908Z,40.36
2024-01-20T22:30:10.429Z,40.01
2024-01-20T22:32:40.705Z,40.23
2024-01-20T22:35:07.683Z,40.33
2024-01-20T22:37:34.340Z,40.23
2024-01-20T22:40:03.221Z,40.52
2024-01-20T22:42:29.881Z,40.48
2024-01-20T22:44:56.486Z,40.59
2024-01-20T22:47:23.502Z,40.63
2024-01-20T22:49:50.772Z,40.61
2024-01-20T22:52:17.439Z,40.68
2024-01-20T22:54:45.170Z,40.48
2024-01-20T22:57:12.097Z,40.74
2024-01-20T22:59:38.676Z,40.75
2024-01-20T23:02:05.819Z,40.85
2024-01-20T23:04:32.622Z,40.83
2024-01-20T23:06:59.701Z,40.90
2024-01-20T23:09:27.516Z,40.89
2024-01-20T23:11:54.766Z,40.97
2024-01-20T23:14:22.084Z,41.14
2024-01-20T23:16:48.909Z,41.17
2024-01-20T23:19:15.481Z,41.30
2024-01-20T23:21:42.118Z,41.21
2024-01-20T23:24:08.698Z,41.23
2024-01-20T23:26:36.071Z,41.53
2024-01-20T23:29:02.606Z,41.19
2024-01-20T23:31:29.108Z,41.24
2024-01-20T23:33:55.729Z,41.33
2024-01-20T23:36:22.297Z,41.58
2024-01-20T23:38:48.869Z,41.36
2024-01-20T23:41:15.418Z,41.54
2024-01-20T23:43:42.937Z,41.67
2024-01-20T23:46:11.196Z,41.83
2024-01-20T23:48:37.748Z,41.73
2024-01-20T23:51:04.991Z,41.70
2024-01-20T23:53:31.718Z,41.68
2024-01-20T23:55:58.220Z,41.70
2024-01-20T23:58:25.046Z,41.71
